Capital City Airport Lansing US
ICAO: KLAN
IATA: LAN
Category: Medium
Scheduled Services: Yes

Elevation: 861 ft
TransAlt. 18000 ft.

Airport Communications:
LANSING APP/DEP:118.65
ATIS:119.75
CLNC DEL:123.675
GND:121.9
LANSING RDO:122.2
LANSING TWR:119.9
UNICOM:122.95

KLAN Zoom In..

If you have problems with the map follow the link
https://www.worldairports.se/pages/airport.php?
ICAO=KLAN

Runways:

(A) RW 06 length 5002 ft width 120 ft
---- / hdg 58

(B) RW 10L length 3601 ft width 75 ft
---- / hdg 96

(C) RW 10R length 8506 ft width 150 ft
ILS 111.70 / hdg 96

(D) RW 24 length 5002 ft width 120 ft
---- / hdg 238

(E) RW 28L length 8506 ft width 150 ft
ILS 110.10 / hdg 276

(F) RW 28R length 3601 ft width 75 ft
---- / hdg 276

Location; KLAN
Day. 19 / Time. 19.01 Zulu
* Altimeter: 30.10
* Temperature: -05° c. -23°f.
* Wind from: 320° Speed 13 kn.
Dewpoint: -08° c.
Visibility: 2 m.
Clouds: Few 1600 ft.
Clouds: Scattered 2300 ft.
Clouds: Overcast 3000 ft.
Conditions: Light Snow.

KLAN 191901Z 32013KT 2 1/2SM -SN FEW016 SCT023 OVC030 M05/M08 A3010 RMK AO2 P0000 T10501083 $


Wind From 320°
Speed 13 kn.

 
 
jpsmedia worldairports.se 2020   terms of use